createdAt,value
2023-04-29T00:01:42.708Z,36.30
2023-04-29T00:05:10.804Z,31.20
2023-04-29T00:08:38.198Z,34.10
2023-04-29T00:12:05.145Z,32.90
2023-04-29T00:15:31.997Z,31.90
2023-04-29T00:18:59.800Z,31.50
2023-04-29T00:22:27.425Z,31.00
2023-04-29T00:25:54.210Z,36.60
2023-04-29T00:29:23.792Z,29.20
2023-04-29T00:32:51.080Z,30.10
2023-04-29T00:36:18.133Z,32.00
2023-04-29T00:39:44.962Z,30.40
2023-04-29T00:43:12.018Z,33.40
2023-04-29T00:46:39.240Z,32.40
2023-04-29T00:50:07.708Z,34.50
2023-04-29T00:53:35.160Z,26.00
2023-04-29T00:57:02.707Z,32.50
2023-04-29T01:00:30.023Z,30.00
2023-04-29T01:03:57.905Z,34.70
2023-04-29T01:07:32.803Z,27.70
2023-04-29T01:11:09.076Z,32.70
2023-04-29T01:14:36.945Z,34.10
2023-04-29T01:18:12.089Z,30.80
2023-04-29T01:21:49.756Z,31.70
2023-04-29T01:25:17.685Z,32.30
2023-04-29T01:29:24.886Z,32.30
2023-04-29T01:33:01.764Z,34.70
2023-04-29T01:36:44.222Z,35.50
2023-04-29T01:40:17.502Z,37.90
2023-04-29T01:43:59.916Z,45.70
2023-04-29T01:47:28.433Z,37.40
2023-04-29T01:50:55.349Z,35.90
2023-04-29T01:54:22.933Z,41.10
2023-04-29T01:57:49.814Z,29.80
2023-04-29T02:01:35.820Z,34.10
2023-04-29T02:05:02.617Z,36.60
2023-04-29T02:08:29.554Z,38.90
2023-04-29T02:11:56.878Z,33.60
2023-04-29T02:15:23.989Z,30.50
2023-04-29T02:18:51.130Z,33.30
2023-04-29T02:22:17.963Z,35.20
2023-04-29T02:25:44.999Z,29.30
2023-04-29T02:29:12.432Z,35.60
2023-04-29T02:32:39.499Z,30.20
2023-04-29T02:36:07.122Z,36.70
2023-04-29T02:39:33.971Z,29.90
2023-04-29T02:43:01.584Z,27.90
2023-04-29T02:46:28.898Z,29.20
2023-04-29T02:49:59.057Z,29.00
2023-04-29T02:53:25.764Z,33.60
2023-04-29T02:56:52.906Z,33.20
2023-04-29T03:00:20.484Z,36.10
2023-04-29T03:03:47.522Z,26.70
2023-04-29T03:07:14.575Z,30.30
2023-04-29T03:10:41.899Z,34.80
2023-04-29T03:14:08.961Z,29.90
2023-04-29T03:17:36.756Z,32.30
2023-04-29T03:21:04.869Z,36.10
2023-04-29T03:24:31.755Z,28.20
2023-04-29T03:27:59.000Z,28.50
2023-04-29T03:31:27.377Z,34.80
2023-04-29T03:34:54.681Z,32.60
2023-04-29T03:38:50.890Z,30.60
2023-04-29T03:42:17.895Z,34.00
2023-04-29T03:45:45.079Z,37.10
2023-04-29T03:49:14.360Z,34.60
2023-04-29T03:52:41.565Z,30.30
2023-04-29T03:56:14.106Z,37.90
2023-04-29T03:59:41.294Z,32.70
2023-04-29T04:03:09.125Z,34.50
2023-04-29T04:06:37.780Z,36.20
2023-04-29T04:10:05.163Z,33.10
2023-04-29T04:13:32.697Z,27.70
2023-04-29T04:17:00.385Z,37.70
2023-04-29T04:20:28.062Z,34.40
2023-04-29T04:23:55.233Z,29.20
2023-04-29T04:27:23.069Z,33.50
2023-04-29T04:30:50.997Z,34.10
2023-04-29T04:34:18.841Z,31.10
2023-04-29T04:37:46.890Z,34.20
2023-04-29T04:41:14.523Z,35.90
2023-04-29T04:44:44.146Z,37.50
2023-04-29T04:48:17.358Z,35.70
2023-04-29T04:51:48.916Z,33.40
2023-04-29T04:55:15.992Z,31.20
2023-04-29T04:58:45.226Z,38.70
2023-04-29T05:02:12.253Z,35.00
2023-04-29T05:05:39.586Z,33.70
2023-04-29T05:09:06.996Z,30.20
2023-04-29T05:12:35.496Z,29.00
2023-04-29T05:16:06.605Z,34.60
2023-04-29T05:19:33.987Z,29.50
2023-04-29T05:23:01.040Z,28.50
2023-04-29T05:26:28.973Z,30.90
2023-04-29T05:30:00.047Z,27.40
2023-04-29T05:33:27.294Z,31.60
2023-04-29T05:36:54.539Z,34.60
2023-04-29T05:40:23.399Z,29.50
2023-04-29T05:43:50.758Z,25.20
2023-04-29T05:47:17.816Z,24.90
2023-04-29T05:50:45.722Z,23.70
2023-04-29T05:54:12.929Z,21.90
2023-04-29T05:57:40.167Z,21.80
2023-04-29T06:01:07.965Z,21.30
2023-04-29T06:04:35.864Z,28.20
2023-04-29T06:08:35.415Z,22.90
2023-04-29T06:12:05.989Z,29.40
2023-04-29T06:15:33.120Z,21.80
2023-04-29T06:19:00.573Z,25.30
2023-04-29T06:22:28.196Z,20.30
2023-04-29T06:25:56.236Z,23.60
2023-04-29T06:29:23.295Z,19.90
2023-04-29T06:32:51.902Z,20.00
2023-04-29T06:36:19.179Z,21.80
2023-04-29T06:40:04.649Z,20.40
2023-04-29T06:43:52.766Z,23.10
2023-04-29T06:47:38.798Z,23.30
2023-04-29T06:51:13.612Z,21.10
2023-04-29T06:54:40.511Z,25.20
2023-04-29T06:58:07.456Z,26.50
2023-04-29T07:01:34.873Z,31.30
2023-04-29T07:05:02.915Z,19.00
2023-04-29T07:08:30.545Z,20.40
2023-04-29T07:11:57.808Z,19.50
2023-04-29T07:15:24.834Z,22.90
2023-04-29T07:18:52.078Z,25.10
2023-04-29T07:22:19.724Z,26.30
2023-04-29T07:25:46.824Z,21.30
2023-04-29T07:29:14.861Z,24.50
2023-04-29T07:32:41.961Z,23.10
2023-04-29T07:36:09.767Z,24.00
2023-04-29T07:39:37.489Z,24.90
2023-04-29T07:43:06.912Z,24.00
2023-04-29T07:50:00.508Z,21.70
2023-04-29T07:53:27.659Z,28.80
2023-04-29T07:56:54.559Z,25.70
2023-04-29T08:00:22.642Z,21.90
2023-04-29T08:03:50.473Z,24.10
2023-04-29T08:07:19.252Z,17.00
2023-04-29T08:10:46.372Z,19.80
2023-04-29T08:14:13.721Z,18.30
2023-04-29T08:17:40.840Z,18.00
2023-04-29T08:21:09.287Z,19.00
2023-04-29T08:24:36.386Z,17.20
2023-04-29T08:28:03.221Z,18.70
2023-04-29T08:31:30.161Z,16.30
2023-04-29T08:34:57.088Z,29.50
2023-04-29T08:38:24.253Z,18.00
2023-04-29T08:41:52.066Z,19.20
2023-04-29T08:45:24.325Z,20.10
2023-04-29T08:48:53.055Z,18.30
2023-04-29T08:52:19.926Z,17.70
2023-04-29T08:55:49.813Z,20.80
2023-04-29T08:59:18.296Z,14.60
2023-04-29T09:02:51.603Z,19.20
2023-04-29T09:06:21.324Z,18.30
2023-04-29T09:09:49.625Z,16.80
2023-04-29T09:13:28.070Z,17.80
2023-04-29T09:16:55.333Z,15.30
2023-04-29T09:20:32.557Z,15.40
2023-04-29T09:24:01.485Z,17.40
2023-04-29T09:27:31.244Z,14.50
2023-04-29T09:34:35.739Z,12.50
2023-04-29T09:38:16.484Z,13.20
2023-04-29T09:41:59.175Z,11.30
2023-04-29T09:45:37.817Z,9.60
2023-04-29T09:49:06.245Z,10.20
2023-04-29T09:52:43.253Z,9.50
2023-04-29T09:56:10.249Z,11.40
2023-04-29T09:59:38.609Z,13.30
2023-04-29T10:03:07.531Z,13.40
2023-04-29T10:06:34.698Z,40.00
2023-04-29T10:10:02.836Z,10.90
2023-04-29T10:13:30.657Z,10.10
2023-04-29T10:17:04.040Z,11.40
2023-04-29T10:20:31.515Z,9.20
2023-04-29T10:24:00.327Z,15.20
2023-04-29T10:27:29.015Z,10.90
2023-04-29T10:30:57.239Z,12.30
2023-04-29T10:34:25.707Z,12.70
2023-04-29T10:37:53.013Z,9.50
2023-04-29T10:41:25.714Z,12.30
2023-04-29T10:45:22.923Z,11.30
2023-04-29T10:48:50.730Z,18.70
2023-04-29T10:52:19.617Z,10.80
2023-04-29T10:55:50.325Z,11.20
2023-04-29T10:59:21.050Z,19.40
2023-04-29T11:02:48.668Z,12.00
2023-04-29T11:06:15.965Z,11.30
2023-04-29T11:09:43.370Z,12.30
2023-04-29T11:13:28.267Z,14.30
2023-04-29T11:16:57.663Z,12.00
2023-04-29T11:20:25.804Z,14.80
2023-04-29T11:23:54.548Z,14.80
2023-04-29T11:27:25.458Z,14.40
2023-04-29T11:30:53.003Z,16.30
2023-04-29T11:34:26.042Z,17.10
2023-04-29T11:37:54.073Z,13.70
2023-04-29T11:41:21.786Z,15.00
2023-04-29T11:44:52.500Z,15.30
2023-04-29T11:48:22.327Z,15.50
2023-04-29T11:51:49.268Z,16.50
2023-04-29T11:55:16.779Z,15.30
2023-04-29T11:58:45.763Z,16.40
2023-04-29T12:02:16.363Z,14.90
2023-04-29T12:05:47.082Z,14.30
2023-04-29T12:09:15.835Z,16.80
2023-04-29T12:12:44.279Z,18.10
2023-04-29T12:16:13.786Z,11.50
2023-04-29T12:19:44.096Z,12.00
2023-04-29T12:23:18.984Z,13.00
2023-04-29T12:26:48.199Z,9.00
2023-04-29T12:30:16.038Z,14.90
2023-04-29T12:33:45.591Z,18.00
2023-04-29T12:37:13.269Z,9.00
2023-04-29T12:40:40.263Z,22.30
2023-04-29T12:44:08.453Z,9.70
2023-04-29T12:47:37.140Z,11.10
2023-04-29T12:51:05.541Z,39.40
2023-04-29T12:54:32.658Z,9.60
2023-04-29T12:58:01.115Z,9.80
2023-04-29T13:01:28.453Z,9.80
2023-04-29T13:04:55.653Z,8.40
2023-04-29T13:08:23.308Z,9.00
2023-04-29T13:11:50.262Z,9.60
2023-04-29T13:15:17.264Z,11.00
2023-04-29T13:18:53.417Z,10.30
2023-04-29T13:22:29.366Z,13.20
2023-04-29T13:25:56.565Z,9.60
2023-04-29T13:29:24.104Z,12.70
2023-04-29T13:32:55.389Z,11.60
2023-04-29T13:36:28.397Z,14.20
2023-04-29T13:39:57.531Z,8.70
2023-04-29T13:43:32.987Z,24.90
2023-04-29T13:47:06.340Z,9.30
2023-04-29T14:04:34.740Z,6.70
2023-04-29T14:08:03.782Z,5.10
2023-04-29T14:11:31.331Z,8.30
2023-04-29T14:15:00.145Z,6.00
2023-04-29T14:18:30.188Z,7.60
2023-04-29T14:21:57.670Z,6.60
2023-04-29T14:25:26.686Z,9.50
2023-04-29T14:28:58.340Z,10.60
2023-04-29T14:32:26.185Z,10.80
2023-04-29T14:35:53.378Z,13.10
2023-04-29T14:39:20.977Z,10.30
2023-04-29T14:42:48.931Z,11.80
2023-04-29T14:46:17.796Z,10.20
2023-04-29T14:49:45.187Z,15.80
2023-04-29T14:53:13.077Z,10.60
2023-04-29T14:56:41.270Z,11.40
2023-04-29T15:00:11.153Z,11.50
2023-04-29T15:03:43.687Z,9.00
2023-04-29T15:07:12.287Z,10.20
2023-04-29T15:10:40.218Z,9.60
2023-04-29T15:14:09.465Z,10.20
2023-04-29T15:17:36.909Z,10.30
2023-04-29T15:21:05.590Z,33.40
2023-04-29T15:24:32.971Z,60.60
2023-04-29T15:28:01.332Z,176.20
2023-04-29T15:31:30.830Z,194.80
2023-04-29T15:35:00.576Z,171.20
2023-04-29T15:38:30.175Z,122.90
2023-04-29T15:41:59.079Z,45.00
2023-04-29T15:45:26.566Z,23.90
2023-04-29T15:48:55.022Z,100.20
2023-04-29T15:52:23.390Z,63.40
2023-04-29T15:55:51.421Z,52.00
2023-04-29T15:59:18.909Z,34.30
2023-04-29T16:02:46.121Z,35.70
2023-04-29T16:06:14.286Z,15.10
2023-04-29T16:09:41.454Z,13.10
2023-04-29T16:13:08.895Z,11.90
2023-04-29T16:16:36.417Z,14.70
2023-04-29T16:20:04.293Z,14.70
2023-04-29T16:23:32.614Z,15.00
2023-04-29T16:27:01.575Z,16.50
2023-04-29T16:30:29.139Z,46.60
2023-04-29T16:33:58.800Z,32.00
2023-04-29T16:40:57.333Z,25.40
2023-04-29T16:44:26.634Z,26.60
2023-04-29T16:47:56.813Z,26.70
2023-04-29T16:51:25.369Z,32.00
2023-04-29T16:54:53.037Z,30.30
2023-04-29T16:58:23.078Z,30.30
2023-04-29T17:01:50.853Z,34.70
2023-04-29T17:05:19.414Z,31.30
2023-04-29T17:08:48.644Z,32.50
2023-04-29T17:12:17.972Z,37.50
2023-04-29T17:15:51.059Z,42.30
2023-04-29T17:19:21.463Z,50.00
2023-04-29T17:22:49.318Z,53.50
2023-04-29T17:26:17.419Z,58.20
2023-04-29T17:29:45.320Z,50.70
2023-04-29T17:33:14.960Z,52.60
2023-04-29T17:40:11.840Z,55.50
2023-04-29T17:43:39.671Z,59.30
2023-04-29T17:47:09.448Z,60.30
2023-04-29T17:50:42.207Z,64.50
2023-04-29T17:54:11.881Z,62.50
2023-04-29T17:57:40.424Z,44.90
2023-04-29T18:01:08.277Z,75.50
2023-04-29T18:04:37.440Z,71.10
2023-04-29T18:08:05.054Z,67.30
2023-04-29T18:11:33.115Z,63.80
2023-04-29T18:15:01.699Z,62.40
2023-04-29T18:18:31.095Z,57.50
2023-04-29T18:21:59.348Z,56.20
2023-04-29T18:25:28.068Z,57.20
2023-04-29T18:28:55.640Z,57.30
2023-04-29T18:32:23.596Z,55.70
2023-04-29T18:35:51.250Z,53.60
2023-04-29T18:39:18.838Z,49.10
2023-04-29T18:42:46.312Z,48.10
2023-04-29T18:46:18.069Z,43.70
2023-04-29T18:49:46.168Z,49.60
2023-04-29T18:53:15.362Z,39.80
2023-04-29T18:56:43.672Z,43.90
2023-04-29T19:00:15.354Z,41.10
2023-04-29T19:03:43.811Z,41.00
2023-04-29T19:07:12.034Z,34.10
2023-04-29T19:10:41.950Z,42.60
2023-04-29T19:14:10.928Z,48.50
2023-04-29T19:17:38.864Z,38.90
2023-04-29T19:21:06.554Z,32.40
2023-04-29T19:24:35.287Z,31.40
2023-04-29T19:28:02.043Z,31.90
2023-04-29T19:31:29.077Z,28.80
2023-04-29T19:34:55.995Z,34.90
2023-04-29T19:38:22.949Z,28.40
2023-04-29T19:41:49.757Z,24.40
2023-04-29T19:45:17.040Z,27.10
2023-04-29T19:48:43.902Z,25.60
2023-04-29T19:52:10.837Z,27.40
2023-04-29T19:55:39.146Z,33.20
2023-04-29T19:59:06.522Z,30.50
2023-04-29T20:02:33.859Z,34.70
2023-04-29T20:06:01.285Z,30.50
2023-04-29T20:09:28.134Z,26.50
2023-04-29T20:12:54.968Z,29.90
2023-04-29T20:16:23.362Z,23.60
2023-04-29T20:19:50.399Z,21.90
2023-04-29T20:23:17.411Z,26.80
2023-04-29T20:26:44.210Z,21.80
2023-04-29T20:30:13.037Z,24.90
2023-04-29T20:33:40.071Z,26.10
2023-04-29T20:37:08.062Z,28.30
2023-04-29T20:40:35.019Z,23.20
2023-04-29T20:44:01.754Z,22.50
2023-04-29T20:47:29.269Z,25.30
2023-04-29T20:50:56.128Z,21.40
2023-04-29T20:54:23.058Z,23.30
2023-04-29T20:57:50.550Z,18.20
2023-04-29T21:01:19.115Z,21.10
2023-04-29T21:04:46.395Z,21.70
2023-04-29T21:08:13.637Z,18.40
2023-04-29T21:11:40.582Z,21.10
2023-04-29T21:15:09.111Z,24.30
2023-04-29T21:18:36.319Z,19.40
2023-04-29T21:22:03.440Z,23.80
2023-04-29T21:25:30.393Z,21.90
2023-04-29T21:28:57.427Z,25.60
2023-04-29T21:32:24.667Z,24.60
2023-04-29T21:35:52.185Z,23.00
2023-04-29T21:39:19.222Z,24.00
2023-04-29T21:42:47.020Z,21.80
2023-04-29T21:46:14.086Z,25.40
2023-04-29T21:49:41.857Z,27.70
2023-04-29T21:53:08.857Z,22.20
2023-04-29T21:56:36.129Z,23.10
2023-04-29T22:00:11.107Z,23.80
2023-04-29T22:03:39.749Z,27.60
2023-04-29T22:07:06.661Z,28.80
2023-04-29T22:10:33.843Z,31.00
2023-04-29T22:14:00.939Z,29.00
2023-04-29T22:17:27.813Z,31.50
2023-04-29T22:20:54.603Z,27.00
2023-04-29T22:24:21.348Z,26.60
2023-04-29T22:27:48.319Z,27.80
2023-04-29T22:31:15.391Z,27.40
2023-04-29T22:34:44.149Z,25.30
2023-04-29T22:38:11.226Z,23.60
2023-04-29T22:41:38.120Z,23.50
2023-04-29T22:45:05.362Z,25.60
2023-04-29T22:48:32.262Z,25.60
2023-04-29T22:51:59.395Z,23.90
2023-04-29T22:55:26.405Z,24.30
2023-04-29T22:58:53.409Z,28.80
2023-04-29T23:02:20.248Z,36.30
2023-04-29T23:05:47.242Z,27.10
2023-04-29T23:09:14.314Z,26.50
2023-04-29T23:12:41.191Z,30.50
2023-04-29T23:16:10.711Z,30.10
2023-04-29T23:19:38.150Z,28.40
2023-04-29T23:23:05.039Z,29.50
2023-04-29T23:26:31.793Z,32.40
2023-04-29T23:29:58.750Z,29.80
2023-04-29T23:33:25.998Z,29.20
2023-04-29T23:36:52.876Z,25.80
2023-04-29T23:40:20.044Z,26.00
2023-04-29T23:43:46.889Z,30.90
2023-04-29T23:47:13.926Z,25.60
2023-04-29T23:50:40.947Z,24.90
2023-04-29T23:54:07.779Z,24.80
2023-04-29T23:57:34.593Z,31.30
